AirNav   Air Wisconsin Up To $57,000 Bonus
 
 1088 users online  

3IL0 Patten Industries Heliport
Elmhurst, Illinois, USA

GOING TO ELMHURST?


FAA INFORMATION EFFECTIVE 22 APRIL 2021

Location

FAA Identifier: 3IL0
Lat/Long: 41-55-27.1060N 087-57-48.2350W
41-55.451767N 087-57.803917W
41.9241961,-87.9633986
(estimated)
Elevation: 695 ft. / 212 m (estimated)
Variation: 01W (1985)
From city: 2 miles W of ELMHURST, IL
Time zone: UTC -5 (UTC -6 during Standard Time)
Zip code: 60126

Heliport Operations

Heliport use: Private use. Permission required prior to landing
Activation date: 05/1972
Control tower: no
ARTCC: CHICAGO CENTER
FSS: KANKAKEE FLIGHT SERVICE STATION
Attendance: UNATNDD
Wind indicator: yes
Segmented circle: no

Heliport Communications

WX ASOS at ORD (4 nm NE): PHONE 773-462-0118
WX AWOS-3 at 06C (7 nm NW): 128.275 ((847) 895-2887)
WX ASOS at PWK (12 nm N): PHONE 847-465-0291
WX ASOS at MDW (13 nm SE): PHONE 773-884-4424
WX ASOS at DPA (13 nm W): PHONE 630-587-3668
WX AWOS-3 at LOT (20 nm S): 118.525 (815-588-4802)

Nearby radio navigation aids

VOR radial/distance  VOR name  Freq  Var
DPAr081/17.4DUPAGE VOR/DME108.4002E
OBKr184/17.8NORTHBROOK VOR/DME113.0002W
JOTr033/27.7JOLIET VOR/DME112.3002E
CGTr323/30.4CHICAGO HEIGHTS VORTAC114.2002E

Heliport Services

Airframe service: NONE
Powerplant service: NONE

Runway Information

Helipad H1

Dimensions: 60 x 60 ft. / 18 x 18 m
Surface: asphalt
Latitude: 41-55.451767N
Longitude: 087-57.803917W
Elevation: 695.0 ft.
Traffic pattern: leftleft

Heliport Ownership and Management from official FAA records

Ownership: Privately-owned
Owner: PATTEN INDUSTRIES, INC.
635 W. LAKE ST
ELMHURST, IL 60126
Phone 630-297-4400
Manager: TERRY FLICK
635 W. LAKE ST
ELMHURST, IL 60126
Phone 630-417-8949

Additional Remarks

FOR CD CTC CHICAGO APCH AT 847-289-0926.

Instrument Procedures

There are no published instrument procedures at 3IL0.

Some nearby airports with instrument procedures:

KORD - Chicago O'Hare International Airport (4 nm NE)
KPWK - Chicago Executive Airport (12 nm N)
KMDW - Chicago Midway International Airport (13 nm SE)
KDPA - DuPage Airport (13 nm W)
1C5 - Bolingbrook's Clow International Airport (16 nm SW)
KLOT - Lewis University Airport (20 nm S)
 
Loc | Ops | Rwys | IFR | FBO | Links
Com | Nav | Svcs | Stats | Notes
Area around 3IL0 (Patten Industries Heliport)
 
Road maps at: MapQuest Bing Google
 
Aerial photo
No photo
 
Sectional chart

 
Airport distance calculator
Flying to Patten Industries Heliport? Find the distance to fly.

From to 3IL0

Sunrise and sunset
Times for 15-May-2021
 Local
(UTC-5)
 Zulu
(UTC)
Morning civil twilight05:0110:01
Sunrise05:3310:33
Sunset20:0401:04
Evening civil twilight20:3601:36

Current date and time
Zulu (UTC)  15-May-2021 21:30:59
Local (UTC-5)  15-May-2021 16:30:59
 
METAR
KORD 
4nm N 
152051Z 19008KT 10SM OVC050 15/07 A3017 RMK AO2 SLP216 T01500072 56015 $
K06C 
7nm NW 
152115Z AUTO 19010G16KT 10SM BKN043 OVC049 A3017 RMK AO2
KPWK 
12nm N 
152052Z 18009KT 10SM OVC047 16/06 A3019 RMK AO2 SLP222 60000 T01610061 56016
KMDW 
13nm SE 
152053Z 19007KT 10SM BKN050 OVC065 15/07 A3018 RMK AO2 RAE53 SLP219 P0000 60001 T01500072 56016
KDPA 
13nm W 
152052Z 18007KT 10SM OVC046 14/08 A3017 RMK AO2 SLP217 60000 T01440078 56010
KLOT 
19nm S 
152115Z AUTO 18006KT 10SM OVC060 15/11 A3018 RMK AO2 T01450105
TAF
KORD 
4nm N 
151928Z 1519/1624 18012G20KT P6SM BKN050 OVC070 TEMPO 1519/1521 6SM -SHRA OVC035 FM160000 17007KT P6SM SCT015 BKN030 FM160700 18004KT P6SM BKN015 FM161600 18007KT P6SM BKN035
KMDW 
13nm SE 
151928Z 1519/1624 18012G19KT P6SM -SHRA BKN050 OVC070 TEMPO 1519/1521 6SM -SHRA OVC030 FM160000 19006KT P6SM SCT015 BKN035 FM160700 18005KT P6SM BKN020 FM161600 18007KT P6SM BKN035
KDPA 
13nm W 
151928Z 1519/1618 18011G19KT 6SM -SHRA OVC070 TEMPO 1520/1524 4SM -SHRA OVC020 FM160000 17008KT P6SM SCT015 OVC023 FM160900 18004KT P6SM BKN007 OVC030 FM161300 17003KT P6SM SCT008 BKN025
NOTAMs
Click for the latest NOTAMs
NOTAMs are issued by the DoD/FAA and will open in a separate window not controlled by AirNav.

 

 
 

Would you like to see your business listed on this page?

 If your business provides an interesting product or service to pilots, flight crews, aircraft, or users of the Patten Industries Heliport, you should consider listing it here.  To start the listing process, click on the button below
 
Add a business
 

Other Pages about Patten Industries Heliport

Update a link
 
Copyright © AirNav, LLC. All rights reserved. Privacy Policy  Contact